Time,TemperatureF,DewpointF,PressureIn,WindDirection,WindDirectionDegrees,WindSpeedMPH,WindSpeedGustMPH,Humidity,HourlyPrecipIn,Conditions,Clouds,dailyrainin,SoftwareType,DateUTC
2013-09-25 00:04:00,57.6,55.6,29.98,NNW,340,3.7,0.0,93,0.00,,,0.00,VWS V14.01,2013-09-24 22:04:00,
2013-09-25 00:09:00,57.6,55.6,29.97,NNW,340,3.7,0.0,93,0.00,,,0.00,VWS V14.01,2013-09-24 22:09:00,
2013-09-25 00:14:00,57.6,55.6,29.97,NNW,340,3.7,0.0,93,0.00,,,0.00,VWS V14.01,2013-09-24 22:14:00,
2013-09-25 00:19:00,57.6,55.6,29.97,NNW,340,3.7,0.0,93,0.00,,,0.00,VWS V14.01,2013-09-24 22:19:00,
2013-09-25 00:25:00,57.6,55.3,29.97,NNW,340,3.7,0.0,92,0.00,,,0.00,VWS V14.01,2013-09-24 22:25:00,
2013-09-25 00:30:00,57.6,55.3,29.97,NNW,340,3.7,0.0,92,0.00,,,0.00,VWS V14.01,2013-09-24 22:30:00,
2013-09-25 00:35:00,57.6,55.3,29.97,NNW,337,3.7,0.0,92,0.00,,,0.00,VWS V14.01,2013-09-24 22:35:00,
2013-09-25 00:40:00,57.6,55.3,29.97,NW,304,3.7,0.0,92,0.00,,,0.00,VWS V14.01,2013-09-24 22:40:00,
2013-09-25 00:45:00,57.6,55.3,29.96,NW,317,3.7,0.0,92,0.00,,,0.00,VWS V14.01,2013-09-24 22:45:00,
2013-09-25 00:50:00,57.7,55.1,29.96,NW,317,3.7,0.0,91,0.00,,,0.00,VWS V14.01,2013-09-24 22:50:00,
2013-09-25 00:55:00,57.7,55.1,29.96,SSW,210,3.7,0.0,91,0.00,,,0.00,VWS V14.01,2013-09-24 22:55:00,
2013-09-25 01:00:00,57.8,55.2,29.96,SSW,200,3.7,0.0,91,0.00,,,0.00,VWS V14.01,2013-09-24 23:00:00,
2013-09-25 01:05:00,57.7,55.1,29.96,SSW,201,3.7,0.0,91,0.00,,,0.00,VWS V14.01,2013-09-24 23:05:00,
2013-09-25 01:11:00,57.7,55.1,29.96,SSW,203,3.7,0.0,91,0.00,,,0.00,VWS V14.01,2013-09-24 23:11:00,
2013-09-25 01:16:00,57.7,55.1,29.96,SSW,203,3.7,0.0,91,0.00,,,0.00,VWS V14.01,2013-09-24 23:16:00,
2013-09-25 01:21:00,57.6,55.0,29.95,SSW,203,3.7,0.0,91,0.00,,,0.00,VWS V14.01,2013-09-24 23:21:00,
2013-09-25 01:26:00,57.6,55.0,29.95,SSW,203,3.7,0.0,91,0.00,,,0.00,VWS V14.01,2013-09-24 23:26:00,
2013-09-25 01:31:00,57.4,54.8,29.95,SSW,203,3.7,0.0,91,0.00,,,0.00,VWS V14.01,2013-09-24 23:31:00,
2013-09-25 01:36:00,57.3,54.7,29.95,SSW,203,3.7,0.0,91,0.00,,,0.00,VWS V14.01,2013-09-24 23:36:00,
2013-09-25 01:41:00,57.0,54.4,29.95,SSW,203,3.7,0.0,91,0.00,,,0.00,VWS V14.01,2013-09-24 23:41:00,
2013-09-25 01:46:00,56.8,54.2,29.95,SSW,203,3.7,0.0,91,0.00,,,0.00,VWS V14.01,2013-09-24 23:46:00,
2013-09-25 01:51:00,56.5,53.9,29.94,SSW,203,3.7,0.0,91,0.00,,,0.00,VWS V14.01,2013-09-24 23:51:00,
2013-09-25 01:56:00,56.3,54.0,29.94,SSW,203,3.7,0.0,92,0.00,,,0.00,VWS V14.01,2013-09-24 23:56:00,
2013-09-25 02:01:00,55.9,53.6,29.94,SSW,204,3.7,0.0,92,0.00,,,0.00,VWS V14.01,2013-09-25 00:01:00,
2013-09-25 02:07:00,55.7,53.4,29.94,SSW,203,3.7,0.0,92,0.00,,,0.00,VWS V14.01,2013-09-25 00:07:00,
2013-09-25 02:12:00,55.7,53.4,29.94,SSW,203,3.7,0.0,92,0.00,,,0.00,VWS V14.01,2013-09-25 00:12:00,
2013-09-25 02:17:00,55.5,53.5,29.93,SSW,203,3.7,0.0,93,0.00,,,0.00,VWS V14.01,2013-09-25 00:17:00,
2013-09-25 02:22:00,55.5,53.5,29.93,SSW,203,3.7,0.0,93,0.00,,,0.00,VWS V14.01,2013-09-25 00:22:00,
2013-09-25 02:27:00,55.3,53.3,29.93,SSW,203,3.7,0.0,93,0.00,,,0.00,VWS V14.01,2013-09-25 00:27:00,
2013-09-25 02:32:00,55.1,53.1,29.93,SSW,203,3.7,0.0,93,0.00,,,0.00,VWS V14.01,2013-09-25 00:32:00,
2013-09-25 02:37:00,55.1,53.4,29.93,SSW,203,3.7,0.0,94,0.00,,,0.00,VWS V14.01,2013-09-25 00:37:00,
2013-09-25 02:42:00,55.0,53.3,29.93,SSW,203,3.7,0.0,94,0.00,,,0.00,VWS V14.01,2013-09-25 00:42:00,
2013-09-25 02:47:00,55.0,53.3,29.93,SSW,203,3.7,0.0,94,0.00,,,0.00,VWS V14.01,2013-09-25 00:47:00,
2013-09-25 02:52:00,55.0,53.3,29.93,SSW,203,3.7,0.0,94,0.00,,,0.00,VWS V14.01,2013-09-25 00:52:00,
2013-09-25 02:57:00,54.6,52.9,29.92,SSW,203,3.7,0.0,94,0.00,,,0.00,VWS V14.01,2013-09-25 00:57:00,
2013-09-25 03:02:00,54.4,52.7,29.93,SSW,203,3.7,0.0,94,0.00,,,0.00,VWS V14.01,2013-09-25 01:02:00,
2013-09-25 03:08:00,54.0,52.0,29.93,SSW,203,3.7,0.0,93,0.00,,,0.00,VWS V14.01,2013-09-25 01:08:00,
2013-09-25 03:13:00,53.8,52.1,29.92,SSW,203,3.7,0.0,94,0.00,,,0.00,VWS V14.01,2013-09-25 01:13:00,
2013-09-25 03:18:00,54.1,52.7,29.93,SSW,203,3.7,0.0,95,0.00,,,0.00,VWS V14.01,2013-09-25 01:18:00,
2013-09-25 03:23:00,54.2,52.8,29.92,SSW,203,3.7,0.0,95,0.00,,,0.00,VWS V14.01,2013-09-25 01:23:00,
2013-09-25 03:28:00,54.1,52.4,29.92,SSW,205,3.7,0.0,94,0.00,,,0.00,VWS V14.01,2013-09-25 01:28:00,
2013-09-25 03:33:00,53.9,52.5,29.92,SSW,203,3.7,0.0,95,0.00,,,0.00,VWS V14.01,2013-09-25 01:33:00,
2013-09-25 03:38:00,53.9,52.5,29.92,SSW,203,3.7,0.0,95,0.00,,,0.00,VWS V14.01,2013-09-25 01:38:00,
2013-09-25 03:43:00,54.1,52.7,29.92,SSW,203,3.7,0.0,95,0.00,,,0.00,VWS V14.01,2013-09-25 01:43:00,
2013-09-25 03:48:00,54.1,52.7,29.92,SSW,203,3.7,0.0,95,0.00,,,0.00,VWS V14.01,2013-09-25 01:48:00,
2013-09-25 03:53:00,54.1,52.7,29.92,SSW,204,3.7,0.0,95,0.00,,,0.00,VWS V14.01,2013-09-25 01:53:00,
2013-09-25 03:58:00,54.1,52.7,29.92,SSW,203,3.7,0.0,95,0.00,,,0.00,VWS V14.01,2013-09-25 01:58:00,
2013-09-25 04:03:00,53.8,52.4,29.92,SSW,203,3.7,0.0,95,0.00,,,0.00,VWS V14.01,2013-09-25 02:03:00,
2013-09-25 04:09:00,53.7,52.3,29.92,SSW,203,3.7,0.0,95,0.00,,,0.00,VWS V14.01,2013-09-25 02:09:00,
2013-09-25 04:14:00,53.8,52.4,29.92,SSW,203,3.7,0.0,95,0.00,,,0.00,VWS V14.01,2013-09-25 02:14:00,
2013-09-25 04:19:00,53.9,52.5,29.92,SSW,203,3.7,0.0,95,0.00,,,0.00,VWS V14.01,2013-09-25 02:19:00,
2013-09-25 04:24:00,53.9,52.5,29.92,SSW,203,3.7,0.0,95,0.00,,,0.00,VWS V14.01,2013-09-25 02:24:00,
2013-09-25 04:29:00,54.0,52.9,29.91,SSW,205,3.7,0.0,96,0.00,,,0.00,VWS V14.01,2013-09-25 02:29:00,
2013-09-25 04:34:00,54.2,53.1,29.91,SSW,203,3.7,0.0,96,0.00,,,0.00,VWS V14.01,2013-09-25 02:34:00,
2013-09-25 04:39:00,54.5,53.4,29.91,SSW,203,3.7,0.0,96,0.00,,,0.00,VWS V14.01,2013-09-25 02:39:00,
2013-09-25 04:44:00,54.8,53.7,29.91,SSW,203,3.7,0.0,96,0.00,,,0.00,VWS V14.01,2013-09-25 02:44:00,
2013-09-25 04:49:00,55.0,53.9,29.91,SSW,203,3.7,0.0,96,0.00,,,0.00,VWS V14.01,2013-09-25 02:49:00,
2013-09-25 04:54:00,55.1,54.0,29.91,SSW,203,3.7,0.0,96,0.00,,,0.00,VWS V14.01,2013-09-25 02:54:00,
2013-09-25 04:59:00,55.1,54.0,29.90,SSW,203,3.7,0.0,96,0.00,,,0.00,VWS V14.01,2013-09-25 02:59:00,
2013-09-25 05:04:00,55.2,54.1,29.90,SSW,203,3.7,0.0,96,0.00,,,0.00,VWS V14.01,2013-09-25 03:04:00,
2013-09-25 05:09:00,55.3,54.2,29.90,SSW,203,3.7,0.0,96,0.00,,,0.00,VWS V14.01,2013-09-25 03:09:00,
2013-09-25 05:14:00,55.3,54.2,29.90,SSW,205,3.7,0.0,96,0.00,,,0.00,VWS V14.01,2013-09-25 03:14:00,
2013-09-25 05:20:00,55.4,54.3,29.90,SSW,205,3.7,0.0,96,0.00,,,0.00,VWS V14.01,2013-09-25 03:20:00,
2013-09-25 05:25:00,55.4,54.3,29.90,SSW,205,3.7,0.0,96,0.00,,,0.00,VWS V14.01,2013-09-25 03:25:00,
2013-09-25 05:30:00,55.4,54.3,29.90,SSW,205,3.7,0.0,96,0.00,,,0.00,VWS V14.01,2013-09-25 03:30:00,
2013-09-25 05:35:00,55.5,54.4,29.90,SSW,205,3.7,0.0,96,0.00,,,0.00,VWS V14.01,2013-09-25 03:35:00,
2013-09-25 05:40:00,55.5,54.4,29.90,SSW,205,3.7,0.0,96,0.00,,,0.00,VWS V14.01,2013-09-25 03:40:00,
2013-09-25 05:45:00,55.5,54.4,29.91,SSW,205,3.7,0.0,96,0.00,,,0.00,VWS V14.01,2013-09-25 03:45:00,
2013-09-25 05:50:00,55.5,54.4,29.91,SSW,205,3.7,0.0,96,0.00,,,0.00,VWS V14.01,2013-09-25 03:50:00,
2013-09-25 05:55:00,55.6,54.5,29.91,SSW,205,3.7,0.0,96,0.00,,,0.00,VWS V14.01,2013-09-25 03:55:00,
2013-09-25 06:00:00,55.6,54.5,29.90,SSW,205,3.7,0.0,96,0.00,,,0.00,VWS V14.01,2013-09-25 04:00:00,
2013-09-25 06:01:00,55.6,54.5,29.90,SSW,204,3.7,0.0,96,0.00,,,0.00,VWS V14.01,2013-09-25 04:01:00,
2013-09-25 06:03:00,55.6,54.5,29.90,SSW,204,3.7,0.0,96,0.00,,,0.00,VWS V14.01,2013-09-25 04:03:00,
2013-09-25 06:08:00,55.7,54.6,29.90,SSW,204,3.7,0.0,96,0.00,,,0.00,VWS V14.01,2013-09-25 04:08:00,
2013-09-25 06:13:00,55.7,54.6,29.90,SSW,205,3.7,0.0,96,0.00,,,0.00,VWS V14.01,2013-09-25 04:13:00,
2013-09-25 06:18:00,55.7,54.6,29.90,SSW,204,3.7,0.0,96,0.00,,,0.00,VWS V14.01,2013-09-25 04:18:00,
2013-09-25 06:23:00,55.7,54.6,29.90,SSW,201,3.7,0.0,96,0.00,,,0.00,VWS V14.01,2013-09-25 04:23:00,
2013-09-25 06:28:00,55.7,54.6,29.90,SSW,203,3.7,0.0,96,0.00,,,0.00,VWS V14.01,2013-09-25 04:28:00,
2013-09-25 06:33:00,55.7,54.6,29.89,SSW,203,3.7,0.0,96,0.00,,,0.00,VWS V14.01,2013-09-25 04:33:00,
2013-09-25 06:38:00,55.7,54.6,29.89,SSW,203,3.7,0.0,96,0.00,,,0.00,VWS V14.01,2013-09-25 04:38:00,
2013-09-25 06:44:00,55.7,54.6,29.89,SSW,203,3.7,0.0,96,0.00,,,0.00,VWS V14.01,2013-09-25 04:44:00,
2013-09-25 06:49:00,55.8,54.7,29.89,SSW,203,3.7,0.0,96,0.00,,,0.00,VWS V14.01,2013-09-25 04:49:00,
2013-09-25 06:54:00,55.8,54.7,29.89,SSW,204,3.7,0.0,96,0.00,,,0.00,VWS V14.01,2013-09-25 04:54:00,
2013-09-25 06:59:00,55.8,54.7,29.89,SSW,203,3.7,0.0,96,0.00,,,0.00,VWS V14.01,2013-09-25 04:59:00,
2013-09-25 07:04:00,55.8,54.7,29.89,SSW,203,3.7,0.0,96,0.00,,,0.00,VWS V14.01,2013-09-25 05:04:00,
2013-09-25 07:09:00,55.9,54.8,29.89,SSW,201,3.7,0.0,96,0.00,,,0.00,VWS V14.01,2013-09-25 05:09:00,
2013-09-25 07:14:00,55.9,54.8,29.89,SSW,201,3.7,0.0,96,0.00,,,0.00,VWS V14.01,2013-09-25 05:14:00,
2013-09-25 07:19:00,55.9,54.8,29.89,SSW,201,3.7,0.0,96,0.00,,,0.00,VWS V14.01,2013-09-25 05:19:00,
2013-09-25 07:24:00,55.9,54.8,29.89,SSW,201,3.7,0.0,96,0.00,,,0.00,VWS V14.01,2013-09-25 05:24:00,
2013-09-25 07:29:00,56.0,54.9,29.89,SSW,201,3.7,0.0,96,0.00,,,0.00,VWS V14.01,2013-09-25 05:29:00,
2013-09-25 07:34:00,56.0,54.9,29.89,SSW,201,3.7,0.0,96,0.00,,,0.00,VWS V14.01,2013-09-25 05:34:00,
2013-09-25 07:39:00,56.0,54.9,29.89,SSW,201,3.7,0.0,96,0.00,,,0.00,VWS V14.01,2013-09-25 05:39:00,
2013-09-25 07:44:00,56.0,54.9,29.89,SSW,201,3.7,0.0,96,0.00,,,0.00,VWS V14.01,2013-09-25 05:44:00,
2013-09-25 07:49:00,56.1,55.0,29.89,SSW,201,3.7,0.0,96,0.00,,,0.00,VWS V14.01,2013-09-25 05:49:00,
2013-09-25 07:55:00,56.1,55.0,29.89,SSW,201,3.7,0.0,96,0.00,,,0.00,VWS V14.01,2013-09-25 05:55:00,
2013-09-25 08:00:00,56.2,55.1,29.89,SSW,201,3.7,0.0,96,0.00,,,0.00,VWS V14.01,2013-09-25 06:00:00,
2013-09-25 08:05:00,56.2,55.1,29.89,SSW,201,3.7,0.0,96,0.00,,,0.00,VWS V14.01,2013-09-25 06:05:00,
2013-09-25 08:10:00,56.2,55.1,29.89,SSW,201,3.7,0.0,96,0.00,,,0.00,VWS V14.01,2013-09-25 06:10:00,
2013-09-25 08:15:00,56.3,55.2,29.89,SSW,201,3.7,0.0,96,0.00,,,0.00,VWS V14.01,2013-09-25 06:15:00,
2013-09-25 08:20:00,56.3,55.2,29.89,SSW,201,3.7,0.0,96,0.00,,,0.00,VWS V14.01,2013-09-25 06:20:00,
2013-09-25 08:25:00,56.4,55.3,29.89,SSW,201,3.7,0.0,96,0.00,,,0.00,VWS V14.01,2013-09-25 06:25:00,
2013-09-25 08:30:00,56.5,55.4,29.88,SSW,201,3.7,0.0,96,0.00,,,0.00,VWS V14.01,2013-09-25 06:30:00,
2013-09-25 08:35:00,56.5,55.4,29.88,SSW,201,3.7,0.0,96,0.00,,,0.00,VWS V14.01,2013-09-25 06:35:00,
2013-09-25 08:40:00,56.6,55.5,29.88,SSW,201,3.7,0.0,96,0.00,,,0.00,VWS V14.01,2013-09-25 06:40:00,
2013-09-25 08:46:00,56.7,55.6,29.88,SSW,201,3.7,0.0,96,0.00,,,0.00,VWS V14.01,2013-09-25 06:46:00,
2013-09-25 08:51:00,56.7,55.6,29.88,SSW,201,3.7,0.0,96,0.00,,,0.00,VWS V14.01,2013-09-25 06:51:00,
2013-09-25 08:56:00,56.7,55.6,29.88,SSW,204,3.7,0.0,96,0.00,,,0.00,VWS V14.01,2013-09-25 06:56:00,
2013-09-25 09:01:00,56.7,55.6,29.88,South,190,3.7,0.0,96,0.00,,,0.00,VWS V14.01,2013-09-25 07:01:00,
2013-09-25 09:06:00,56.8,55.7,29.88,SSW,196,3.7,0.0,96,0.00,,,0.00,VWS V14.01,2013-09-25 07:06:00,
2013-09-25 09:11:00,56.8,55.7,29.88,SSW,196,3.7,0.0,96,0.00,,,0.00,VWS V14.01,2013-09-25 07:11:00,
2013-09-25 09:16:00,56.9,55.8,29.88,SSW,194,3.7,0.0,96,0.00,,,0.00,VWS V14.01,2013-09-25 07:16:00,
2013-09-25 09:21:00,57.1,56.0,29.88,South,187,3.7,0.0,96,0.00,,,0.00,VWS V14.01,2013-09-25 07:21:00,
2013-09-25 09:26:00,57.2,56.1,29.88,South,190,3.7,0.0,96,0.00,,,0.00,VWS V14.01,2013-09-25 07:26:00,
2013-09-25 09:31:00,57.4,56.0,29.88,South,190,3.7,0.0,95,0.00,,,0.00,VWS V14.01,2013-09-25 07:31:00,
2013-09-25 09:36:00,57.5,56.1,29.88,South,190,3.7,0.0,95,0.00,,,0.00,VWS V14.01,2013-09-25 07:36:00,
2013-09-25 09:42:00,57.8,56.4,29.88,South,190,3.7,0.0,95,0.00,,,0.00,VWS V14.01,2013-09-25 07:42:00,
2013-09-25 09:47:00,57.9,56.5,29.88,South,190,3.7,0.0,95,0.00,,,0.00,VWS V14.01,2013-09-25 07:47:00,
2013-09-25 09:52:00,58.2,56.8,29.89,SSW,193,3.7,0.0,95,0.00,,,0.00,VWS V14.01,2013-09-25 07:52:00,
2013-09-25 09:57:00,58.3,56.6,29.89,SSW,193,3.7,0.0,94,0.00,,,0.00,VWS V14.01,2013-09-25 07:57:00,
2013-09-25 10:02:00,58.3,56.6,29.88,South,191,3.7,0.0,94,0.00,,,0.00,VWS V14.01,2013-09-25 08:02:00,
2013-09-25 10:07:00,58.4,56.7,29.88,SSW,194,3.7,0.0,94,0.00,,,0.00,VWS V14.01,2013-09-25 08:07:00,
2013-09-25 10:12:00,58.6,56.9,29.88,SSW,194,3.7,0.0,94,0.00,,,0.00,VWS V14.01,2013-09-25 08:12:00,
2013-09-25 10:17:00,58.8,56.8,29.88,SSW,195,3.7,0.0,93,0.00,,,0.00,VWS V14.01,2013-09-25 08:17:00,
2013-09-25 10:22:00,59.0,57.0,29.89,SSW,197,3.7,0.0,93,0.00,,,0.00,VWS V14.01,2013-09-25 08:22:00,
2013-09-25 10:27:00,58.9,56.6,29.88,SSW,196,3.7,0.0,92,0.00,,,0.00,VWS V14.01,2013-09-25 08:27:00,
2013-09-25 10:33:00,59.0,56.7,29.88,SSW,196,3.7,0.0,92,0.00,,,0.00,VWS V14.01,2013-09-25 08:33:00,
2013-09-25 10:38:00,59.2,56.9,29.88,SSW,196,3.7,0.0,92,0.00,,,0.00,VWS V14.01,2013-09-25 08:38:00,
2013-09-25 10:43:00,59.5,57.2,29.87,SSW,196,3.7,0.0,92,0.00,,,0.00,VWS V14.01,2013-09-25 08:43:00,
2013-09-25 10:48:00,59.7,57.1,29.87,SSW,200,3.7,0.0,91,0.00,,,0.00,VWS V14.01,2013-09-25 08:48:00,
2013-09-25 10:53:00,59.9,57.3,29.87,SSW,205,3.7,0.0,91,0.00,,,0.00,VWS V14.01,2013-09-25 08:53:00,
2013-09-25 10:58:00,60.2,57.6,29.88,SSW,200,3.7,0.0,91,0.00,,,0.00,VWS V14.01,2013-09-25 08:58:00,
2013-09-25 11:03:00,60.4,57.5,29.88,SSW,199,3.7,0.0,90,0.00,,,0.00,VWS V14.01,2013-09-25 09:03:00,
2013-09-25 11:08:00,60.6,57.3,29.88,SSW,198,3.7,0.0,89,0.00,,,0.00,VWS V14.01,2013-09-25 09:08:00,
2013-09-25 11:13:00,60.8,57.5,29.88,SSW,199,3.7,0.0,89,0.00,,,0.00,VWS V14.01,2013-09-25 09:13:00,
2013-09-25 11:18:00,61.0,57.7,29.87,SSW,199,3.7,0.0,89,0.00,,,0.00,VWS V14.01,2013-09-25 09:18:00,
2013-09-25 11:23:00,61.3,58.0,29.87,SSW,197,3.7,0.0,89,0.00,,,0.00,VWS V14.01,2013-09-25 09:23:00,
2013-09-25 11:28:00,61.5,57.9,29.87,SSW,197,3.7,0.0,88,0.00,,,0.00,VWS V14.01,2013-09-25 09:28:00,
2013-09-25 11:33:00,61.8,57.9,29.87,SSW,198,3.7,0.0,87,0.00,,,0.00,VWS V14.01,2013-09-25 09:33:00,
2013-09-25 11:39:00,61.8,57.9,29.88,SSW,200,3.7,0.0,87,0.00,,,0.00,VWS V14.01,2013-09-25 09:39:00,
2013-09-25 11:44:00,61.8,57.6,29.88,SSW,204,3.7,0.0,86,0.00,,,0.00,VWS V14.01,2013-09-25 09:44:00,
2013-09-25 11:49:00,61.7,57.5,29.88,SSW,203,3.7,0.0,86,0.00,,,0.00,VWS V14.01,2013-09-25 09:49:00,
2013-09-25 11:54:00,62.0,57.8,29.87,SSW,204,3.7,0.0,86,0.00,,,0.00,VWS V14.01,2013-09-25 09:54:00,
2013-09-25 11:59:00,62.2,58.0,29.87,SSW,203,3.7,0.0,86,0.00,,,0.00,VWS V14.01,2013-09-25 09:59:00,
2013-09-25 12:04:00,62.3,57.7,29.87,SSW,205,3.7,0.0,85,0.00,,,0.00,VWS V14.01,2013-09-25 10:04:00,
2013-09-25 12:09:00,62.5,57.9,29.88,SSW,204,3.7,0.0,85,0.00,,,0.00,VWS V14.01,2013-09-25 10:09:00,
2013-09-25 12:14:00,62.5,57.9,29.88,SSW,201,3.7,0.0,85,0.00,,,0.00,VWS V14.01,2013-09-25 10:14:00,
2013-09-25 12:19:00,62.5,57.9,29.88,SSW,203,3.7,0.0,85,0.00,,,0.00,VWS V14.01,2013-09-25 10:19:00,
2013-09-25 12:24:00,62.4,57.8,29.88,SSW,203,3.7,0.0,85,0.00,,,0.00,VWS V14.01,2013-09-25 10:24:00,
2013-09-25 12:29:00,62.4,57.8,29.87,SSW,204,3.7,0.0,85,0.00,,,0.00,VWS V14.01,2013-09-25 10:29:00,
2013-09-25 12:35:00,62.5,57.9,29.87,SSW,203,3.7,0.0,85,0.00,,,0.00,VWS V14.01,2013-09-25 10:35:00,
2013-09-25 12:40:00,62.6,58.0,29.87,SSW,210,3.7,0.0,85,0.00,,,0.00,VWS V14.01,2013-09-25 10:40:00,
2013-09-25 12:45:00,62.5,57.9,29.87,SSW,204,3.7,0.0,85,0.00,,,0.00,VWS V14.01,2013-09-25 10:45:00,
2013-09-25 12:50:00,62.6,58.0,29.87,SSW,201,3.7,0.0,85,0.00,,,0.00,VWS V14.01,2013-09-25 10:50:00,
2013-09-25 12:55:00,62.7,58.1,29.87,South,187,3.7,0.0,85,0.00,,,0.00,VWS V14.01,2013-09-25 10:55:00,
2013-09-25 13:00:00,62.8,57.9,29.87,South,191,3.7,0.0,84,0.00,,,0.00,VWS V14.01,2013-09-25 11:00:00,
2013-09-25 13:05:00,62.9,58.0,29.86,South,185,3.7,0.0,84,0.00,,,0.00,VWS V14.01,2013-09-25 11:05:00,
2013-09-25 13:10:00,63.0,58.1,29.86,SSW,205,3.7,0.0,84,0.00,,,0.00,VWS V14.01,2013-09-25 11:10:00,
2013-09-25 13:15:00,63.4,58.8,29.87,SSW,203,3.7,0.0,85,0.00,,,0.00,VWS V14.01,2013-09-25 11:15:00,
2013-09-25 13:20:00,64.0,59.1,29.86,SSW,203,3.7,0.0,84,0.00,,,0.00,VWS V14.01,2013-09-25 11:20:00,
2013-09-25 13:25:00,64.4,58.8,29.86,SSW,207,3.7,0.0,82,0.00,,,0.00,VWS V14.01,2013-09-25 11:25:00,
2013-09-25 13:30:00,64.5,58.9,29.86,SSW,209,3.7,0.0,82,0.00,,,0.00,VWS V14.01,2013-09-25 11:30:00,
2013-09-25 13:36:00,64.7,58.4,29.86,South,191,3.7,0.0,80,0.00,,,0.00,VWS V14.01,2013-09-25 11:36:00,
2013-09-25 13:41:00,65.1,58.8,29.86,South,187,3.7,0.0,80,0.00,,,0.00,VWS V14.01,2013-09-25 11:41:00,
2013-09-25 13:46:00,65.5,58.8,29.86,SSW,201,3.7,0.0,79,0.00,,,0.00,VWS V14.01,2013-09-25 11:46:00,
2013-09-25 13:51:00,65.7,58.7,29.86,SSW,193,3.7,0.0,78,0.00,,,0.00,VWS V14.01,2013-09-25 11:51:00,
2013-09-25 13:56:00,65.7,58.3,29.86,SSW,193,3.7,0.0,77,0.00,,,0.00,VWS V14.01,2013-09-25 11:56:00,
2013-09-25 14:01:00,65.9,58.9,29.86,SSW,200,3.7,0.0,78,0.00,,,0.00,VWS V14.01,2013-09-25 12:01:00,
2013-09-25 14:06:00,65.9,58.5,29.85,SSW,208,3.7,0.0,77,0.00,,,0.00,VWS V14.01,2013-09-25 12:06:00,
2013-09-25 14:11:00,65.8,58.0,29.85,SSW,207,3.7,0.0,76,0.00,,,0.00,VWS V14.01,2013-09-25 12:11:00,
2013-09-25 14:16:00,65.8,58.0,29.85,SSW,207,3.7,0.0,76,0.00,,,0.00,VWS V14.01,2013-09-25 12:16:00,
2013-09-25 14:21:00,66.1,58.0,29.85,SSW,200,3.7,0.0,75,0.00,,,0.00,VWS V14.01,2013-09-25 12:21:00,
2013-09-25 14:26:00,66.8,58.6,29.84,SSW,199,3.7,0.0,75,0.00,,,0.00,VWS V14.01,2013-09-25 12:26:00,
2013-09-25 14:27:00,66.8,58.6,29.84,SSW,205,3.7,0.0,75,0.00,,,0.00,VWS V14.01,2013-09-25 12:27:00,
2013-09-25 14:32:00,67.3,58.7,29.84,SSW,210,3.7,0.0,74,0.00,,,0.00,VWS V14.01,2013-09-25 12:32:00,
2013-09-25 14:37:00,67.1,58.5,29.84,South,186,3.7,0.0,74,0.00,,,0.00,VWS V14.01,2013-09-25 12:37:00,
2013-09-25 14:42:00,66.9,58.3,29.84,SSW,210,3.7,0.0,74,0.00,,,0.00,VWS V14.01,2013-09-25 12:42:00,
2013-09-25 14:47:00,67.0,58.5,29.84,SSW,207,3.7,0.0,74,0.00,,,0.00,VWS V14.01,2013-09-25 12:47:00,
2013-09-25 14:52:00,67.0,58.5,29.84,SSW,207,3.7,0.0,74,0.00,,,0.00,VWS V14.01,2013-09-25 12:52:00,
2013-09-25 14:57:00,66.6,58.8,29.84,SSW,211,3.7,0.0,76,0.00,,,0.00,VWS V14.01,2013-09-25 12:57:00,
2013-09-25 15:02:00,66.3,58.5,29.84,SSW,201,3.7,0.0,76,0.00,,,0.00,VWS V14.01,2013-09-25 13:02:00,
2013-09-25 15:07:00,66.2,58.4,29.84,SSW,208,3.7,0.0,76,0.00,,,0.00,VWS V14.01,2013-09-25 13:07:00,
2013-09-25 15:12:00,66.0,58.6,29.84,SSW,211,3.7,0.0,77,0.00,,,0.00,VWS V14.01,2013-09-25 13:12:00,
2013-09-25 15:17:00,65.9,58.5,29.84,SSW,203,3.7,0.0,77,0.00,,,0.00,VWS V14.01,2013-09-25 13:17:00,
2013-09-25 15:23:00,65.7,58.3,29.84,SSW,203,3.7,0.0,77,0.00,,,0.00,VWS V14.01,2013-09-25 13:23:00,
2013-09-25 15:28:00,65.7,58.3,29.84,SSW,193,3.7,0.0,77,0.00,,,0.00,VWS V14.01,2013-09-25 13:28:00,
2013-09-25 15:33:00,65.6,58.2,29.84,SSW,211,3.7,0.0,77,0.00,,,0.00,VWS V14.01,2013-09-25 13:33:00,
2013-09-25 15:38:00,65.5,58.1,29.84,SSW,201,3.7,0.0,77,0.00,,,0.00,VWS V14.01,2013-09-25 13:38:00,
2013-09-25 15:43:00,65.3,57.9,29.84,SSW,210,3.7,0.0,77,0.00,,,0.00,VWS V14.01,2013-09-25 13:43:00,
2013-09-25 15:48:00,65.2,58.2,29.84,SSW,207,3.7,0.0,78,0.00,,,0.00,VWS V14.01,2013-09-25 13:48:00,
2013-09-25 15:53:00,65.2,58.2,29.84,SSW,211,3.7,0.0,78,0.00,,,0.00,VWS V14.01,2013-09-25 13:53:00,
2013-09-25 15:58:00,65.5,58.1,29.84,SSW,196,3.7,0.0,77,0.00,,,0.00,VWS V14.01,2013-09-25 13:58:00,
2013-09-25 16:03:00,65.7,58.3,29.84,South,173,3.7,0.0,77,0.00,,,0.00,VWS V14.01,2013-09-25 14:03:00,
2013-09-25 16:08:00,66.3,58.5,29.83,SSW,200,3.7,0.0,76,0.00,,,0.00,VWS V14.01,2013-09-25 14:08:00,
2013-09-25 16:13:00,66.9,58.7,29.83,SSW,209,3.7,0.0,75,0.00,,,0.00,VWS V14.01,2013-09-25 14:13:00,
2013-09-25 16:19:00,66.6,58.1,29.83,SSW,211,3.7,0.0,74,0.00,,,0.00,VWS V14.01,2013-09-25 14:19:00,
2013-09-25 16:24:00,66.3,58.2,29.83,SSW,201,3.7,0.0,75,0.00,,,0.00,VWS V14.01,2013-09-25 14:24:00,
2013-09-25 16:29:00,66.4,58.2,29.83,SSW,200,3.7,0.0,75,0.00,,,0.00,VWS V14.01,2013-09-25 14:29:00,
2013-09-25 16:34:00,66.7,58.5,29.83,SSW,193,3.7,0.0,75,0.00,,,0.00,VWS V14.01,2013-09-25 14:34:00,
2013-09-25 16:39:00,67.0,58.5,29.83,SSW,211,3.7,0.0,74,0.00,,,0.00,VWS V14.01,2013-09-25 14:39:00,
2013-09-25 16:44:00,66.7,58.2,29.83,SSW,211,3.7,0.0,74,0.00,,,0.00,VWS V14.01,2013-09-25 14:44:00,
2013-09-25 16:49:00,66.7,58.5,29.83,SSW,212,3.7,0.0,75,0.00,,,0.00,VWS V14.01,2013-09-25 14:49:00,
2013-09-25 16:54:00,66.2,57.7,29.83,NW,324,3.7,0.0,74,0.00,,,0.00,VWS V14.01,2013-09-25 14:54:00,
2013-09-25 16:59:00,66.1,58.3,29.83,NW,324,3.7,0.0,76,0.00,,,0.00,VWS V14.01,2013-09-25 14:59:00,
2013-09-25 17:04:00,66.1,58.0,29.83,SSE,158,3.7,0.0,75,0.00,,,0.00,VWS V14.01,2013-09-25 15:04:00,
2013-09-25 17:09:00,66.1,58.0,29.83,NNW,337,3.7,0.0,75,0.00,,,0.00,VWS V14.01,2013-09-25 15:09:00,
2013-09-25 17:15:00,65.9,57.8,29.83,NW,309,3.7,0.0,75,0.00,,,0.00,VWS V14.01,2013-09-25 15:15:00,
2013-09-25 17:20:00,65.8,57.7,29.83,NNW,346,3.7,0.0,75,0.00,,,0.00,VWS V14.01,2013-09-25 15:20:00,
2013-09-25 17:25:00,65.6,57.8,29.83,NNW,334,3.7,0.0,76,0.00,,,0.00,VWS V14.01,2013-09-25 15:25:00,
2013-09-25 17:30:00,65.4,57.7,29.83,NW,317,3.7,0.0,76,0.00,,,0.00,VWS V14.01,2013-09-25 15:30:00,
2013-09-25 17:35:00,65.1,57.4,29.83,WNW,300,3.7,0.0,76,0.00,,,0.00,VWS V14.01,2013-09-25 15:35:00,
2013-09-25 17:40:00,64.9,57.2,29.83,NW,326,3.7,0.0,76,0.00,,,0.00,VWS V14.01,2013-09-25 15:40:00,
2013-09-25 17:45:00,64.5,57.1,29.83,NW,317,4.7,4.7,77,0.00,,,0.00,VWS V14.01,2013-09-25 15:45:00,
2013-09-25 17:50:00,64.2,56.8,29.83,North,9,4.7,4.7,77,0.00,,,0.00,VWS V14.01,2013-09-25 15:50:00,
2013-09-25 17:55:00,63.9,56.6,29.83,NNE,30,5.7,5.7,77,0.00,,,0.00,VWS V14.01,2013-09-25 15:55:00,
2013-09-25 18:00:00,63.8,56.8,29.83,NNE,30,3.7,3.7,78,0.00,,,0.00,VWS V14.01,2013-09-25 16:00:00,
2013-09-25 18:05:00,63.7,56.7,29.83,NW,308,3.7,0.0,78,0.00,,,0.00,VWS V14.01,2013-09-25 16:05:00,
2013-09-25 18:10:00,63.6,57.0,29.83,NW,308,3.7,0.0,79,0.00,,,0.00,VWS V14.01,2013-09-25 16:10:00,
2013-09-25 18:15:00,63.6,57.0,29.83,NW,308,3.7,0.0,79,0.00,,,0.00,VWS V14.01,2013-09-25 16:15:00,
2013-09-25 18:20:00,63.6,57.3,29.83,NW,324,3.7,0.0,80,0.00,,,0.00,VWS V14.01,2013-09-25 16:20:00,
2013-09-25 18:26:00,63.4,56.8,29.83,WSW,245,4.7,4.7,79,0.00,,,0.00,VWS V14.01,2013-09-25 16:26:00,
2013-09-25 18:31:00,63.1,56.5,29.83,NW,326,3.7,0.0,79,0.00,,,0.00,VWS V14.01,2013-09-25 16:31:00,
2013-09-25 18:36:00,63.0,56.4,29.83,NNE,24,3.7,0.0,79,0.00,,,0.00,VWS V14.01,2013-09-25 16:36:00,
2013-09-25 18:41:00,62.8,56.2,29.83,NW,325,3.7,3.7,79,0.00,,,0.00,VWS V14.01,2013-09-25 16:41:00,
2013-09-25 18:46:00,62.7,56.1,29.83,WNW,286,3.7,3.7,79,0.00,,,0.00,VWS V14.01,2013-09-25 16:46:00,
2013-09-25 18:51:00,62.5,55.9,29.84,North,5,3.7,0.0,79,0.00,,,0.00,VWS V14.01,2013-09-25 16:51:00,
2013-09-25 18:56:00,62.3,55.7,29.83,NNW,342,3.7,3.7,79,0.00,,,0.00,VWS V14.01,2013-09-25 16:56:00,
2013-09-25 19:01:00,62.2,56.0,29.84,WNW,300,3.7,0.0,80,0.00,,,0.00,VWS V14.01,2013-09-25 17:01:00,
2013-09-25 19:07:00,62.0,55.8,29.84,North,353,3.7,3.7,80,0.00,,,0.00,VWS V14.01,2013-09-25 17:07:00,
2013-09-25 19:12:00,61.9,55.7,29.84,NW,314,3.7,0.0,80,0.00,,,0.00,VWS V14.01,2013-09-25 17:12:00,
2013-09-25 19:17:00,61.8,55.6,29.84,NW,317,3.7,0.0,80,0.00,,,0.00,VWS V14.01,2013-09-25 17:17:00,
2013-09-25 19:22:00,61.7,55.8,29.84,NW,317,3.7,0.0,81,0.00,,,0.00,VWS V14.01,2013-09-25 17:22:00,
2013-09-25 19:27:00,61.6,55.7,29.84,NW,304,3.7,3.7,81,0.00,,,0.00,VWS V14.01,2013-09-25 17:27:00,
2013-09-25 19:32:00,61.4,55.9,29.84,NNW,340,3.7,3.7,82,0.00,,,0.00,VWS V14.01,2013-09-25 17:32:00,
2013-09-25 19:37:00,61.3,55.8,29.84,NNW,340,3.7,0.0,82,0.00,,,0.00,VWS V14.01,2013-09-25 17:37:00,
2013-09-25 19:42:00,61.2,56.0,29.84,WNW,294,3.7,0.0,83,0.00,,,0.00,VWS V14.01,2013-09-25 17:42:00,
2013-09-25 19:47:00,61.1,55.9,29.84,WNW,294,3.7,0.0,83,0.00,,,0.00,VWS V14.01,2013-09-25 17:47:00,
2013-09-25 19:52:00,60.9,55.7,29.84,WNW,293,3.7,0.0,83,0.00,,,0.00,VWS V14.01,2013-09-25 17:52:00,
2013-09-25 19:58:00,60.8,55.9,29.84,NNE,18,3.7,0.0,84,0.00,,,0.00,VWS V14.01,2013-09-25 17:58:00,
2013-09-25 20:03:00,60.7,55.8,29.84,NNE,18,3.7,0.0,84,0.00,,,0.00,VWS V14.01,2013-09-25 18:03:00,
2013-09-25 20:08:00,60.6,55.8,29.84,NNE,18,3.7,0.0,84,0.00,,,0.00,VWS V14.01,2013-09-25 18:08:00,
2013-09-25 20:13:00,60.5,56.0,29.84,NNW,331,3.7,0.0,85,0.00,,,0.00,VWS V14.01,2013-09-25 18:13:00,
2013-09-25 20:18:00,60.4,55.9,29.84,NNW,330,3.7,0.0,85,0.00,,,0.00,VWS V14.01,2013-09-25 18:18:00,
2013-09-25 20:23:00,60.3,55.8,29.84,NNW,330,3.7,0.0,85,0.00,,,0.00,VWS V14.01,2013-09-25 18:23:00,
2013-09-25 20:28:00,60.2,56.0,29.84,NNW,328,3.7,0.0,86,0.00,,,0.00,VWS V14.01,2013-09-25 18:28:00,
2013-09-25 20:33:00,60.1,55.9,29.85,NNW,329,3.7,0.0,86,0.00,,,0.00,VWS V14.01,2013-09-25 18:33:00,
2013-09-25 20:38:00,60.0,55.8,29.85,NNW,329,3.7,0.0,86,0.00,,,0.00,VWS V14.01,2013-09-25 18:38:00,
2013-09-25 20:43:00,59.9,55.7,29.85,NNW,329,3.7,0.0,86,0.00,,,0.00,VWS V14.01,2013-09-25 18:43:00,
2013-09-25 20:49:00,59.7,55.8,29.85,NNW,329,3.7,0.0,87,0.00,,,0.00,VWS V14.01,2013-09-25 18:49:00,
2013-09-25 20:54:00,59.6,55.7,29.85,NNW,328,3.7,0.0,87,0.00,,,0.00,VWS V14.01,2013-09-25 18:54:00,
2013-09-25 20:59:00,59.5,55.6,29.85,NNW,328,3.7,0.0,87,0.00,,,0.00,VWS V14.01,2013-09-25 18:59:00,
2013-09-25 21:04:00,59.3,55.8,29.85,NNW,329,3.7,0.0,88,0.00,,,0.00,VWS V14.01,2013-09-25 19:04:00,
2013-09-25 21:09:00,59.2,55.7,29.85,NNW,341,3.7,0.0,88,0.00,,,0.00,VWS V14.01,2013-09-25 19:09:00,
2013-09-25 21:14:00,59.1,55.5,29.85,NNW,341,3.7,0.0,88,0.00,,,0.00,VWS V14.01,2013-09-25 19:14:00,
2013-09-25 21:19:00,58.9,55.4,29.85,NNW,341,3.7,0.0,88,0.00,,,0.00,VWS V14.01,2013-09-25 19:19:00,
2013-09-25 21:24:00,58.7,55.2,29.85,NNW,342,3.7,0.0,88,0.00,,,0.00,VWS V14.01,2013-09-25 19:24:00,
2013-09-25 21:29:00,58.6,55.4,29.85,NNW,341,3.7,0.0,89,0.00,,,0.00,VWS V14.01,2013-09-25 19:29:00,
2013-09-25 21:34:00,58.5,55.3,29.85,NNW,341,3.7,0.0,89,0.00,,,0.00,VWS V14.01,2013-09-25 19:34:00,
2013-09-25 21:39:00,58.4,55.5,29.85,NNW,342,3.7,0.0,90,0.00,,,0.00,VWS V14.01,2013-09-25 19:39:00,
2013-09-25 21:44:00,58.3,55.1,29.85,NNW,342,3.7,0.0,89,0.00,,,0.00,VWS V14.01,2013-09-25 19:44:00,
2013-09-25 21:50:00,58.3,55.4,29.85,NNW,341,3.7,0.0,90,0.00,,,0.00,VWS V14.01,2013-09-25 19:50:00,
2013-09-25 21:55:00,58.3,55.7,29.85,NNW,341,3.7,0.0,91,0.00,,,0.00,VWS V14.01,2013-09-25 19:55:00,
2013-09-25 22:00:00,58.2,55.6,29.85,NNW,341,3.7,0.0,91,0.00,,,0.00,VWS V14.01,2013-09-25 20:00:00,
2013-09-25 22:05:00,58.1,55.5,29.85,NNW,341,3.7,0.0,91,0.00,,,0.00,VWS V14.01,2013-09-25 20:05:00,
2013-09-25 22:10:00,58.0,55.4,29.85,NNW,342,3.7,0.0,91,0.00,,,0.00,VWS V14.01,2013-09-25 20:10:00,
2013-09-25 22:15:00,58.0,55.4,29.85,NNW,341,3.7,0.0,91,0.00,,,0.00,VWS V14.01,2013-09-25 20:15:00,
2013-09-25 22:20:00,58.0,55.4,29.85,NNW,341,3.7,0.0,91,0.00,,,0.00,VWS V14.01,2013-09-25 20:20:00,
2013-09-25 22:25:00,57.9,55.3,29.85,NNW,342,3.7,0.0,91,0.00,,,0.00,VWS V14.01,2013-09-25 20:25:00,
2013-09-25 22:30:00,57.9,55.6,29.85,NNW,341,3.7,0.0,92,0.00,,,0.00,VWS V14.01,2013-09-25 20:30:00,
2013-09-25 22:35:00,57.9,55.6,29.85,NNW,341,3.7,0.0,92,0.00,,,0.00,VWS V14.01,2013-09-25 20:35:00,
2013-09-25 22:40:00,57.9,55.6,29.85,NNW,341,3.7,0.0,92,0.00,,,0.00,VWS V14.01,2013-09-25 20:40:00,
2013-09-25 22:45:00,57.8,55.5,29.85,NNW,341,3.7,0.0,92,0.00,,,0.00,VWS V14.01,2013-09-25 20:45:00,
2013-09-25 22:51:00,57.7,55.4,29.85,NNW,342,3.7,0.0,92,0.00,,,0.00,VWS V14.01,2013-09-25 20:51:00,
2013-09-25 22:56:00,57.6,55.3,29.85,NNW,341,3.7,0.0,92,0.00,,,0.00,VWS V14.01,2013-09-25 20:56:00,
2013-09-25 23:01:00,57.6,55.3,29.85,NNW,341,3.7,0.0,92,0.00,,,0.00,VWS V14.01,2013-09-25 21:01:00,
2013-09-25 23:06:00,57.5,55.2,29.85,NNW,341,3.7,0.0,92,0.00,,,0.00,VWS V14.01,2013-09-25 21:06:00,
2013-09-25 23:11:00,57.5,55.2,29.85,NNW,341,3.7,0.0,92,0.00,,,0.00,VWS V14.01,2013-09-25 21:11:00,
2013-09-25 23:16:00,57.6,55.6,29.85,NNW,341,3.7,0.0,93,0.00,,,0.00,VWS V14.01,2013-09-25 21:16:00,
2013-09-25 23:21:00,57.6,55.6,29.86,NNW,341,3.7,0.0,93,0.00,,,0.00,VWS V14.01,2013-09-25 21:21:00,
2013-09-25 23:26:00,57.6,55.6,29.85,NNW,341,3.7,0.0,93,0.00,,,0.00,VWS V14.01,2013-09-25 21:26:00,
2013-09-25 23:31:00,57.6,55.3,29.85,NNW,341,3.7,0.0,92,0.00,,,0.00,VWS V14.01,2013-09-25 21:31:00,
2013-09-25 23:36:00,57.5,55.2,29.85,NNW,342,3.7,0.0,92,0.00,,,0.00,VWS V14.01,2013-09-25 21:36:00,
2013-09-25 23:41:00,57.6,55.6,29.85,NNW,342,3.7,0.0,93,0.00,,,0.00,VWS V14.01,2013-09-25 21:41:00,
2013-09-25 23:47:00,57.8,55.8,29.85,NNW,341,3.7,0.0,93,0.00,,,0.00,VWS V14.01,2013-09-25 21:47:00,
2013-09-25 23:52:00,57.8,55.8,29.85,NNW,342,3.7,0.0,93,0.00,,,0.00,VWS V14.01,2013-09-25 21:52:00,
2013-09-25 23:57:00,57.8,55.8,29.85,NNW,342,3.7,0.0,93,0.00,,,0.00,VWS V14.01,2013-09-25 21:57:00,